createdAt,value
2018-12-31T00:01:28.466Z,98456.86
2018-12-31T00:03:58.470Z,98463.44
2018-12-31T00:06:29.001Z,98476.09
2018-12-31T00:08:58.889Z,98474.41
2018-12-31T00:11:28.306Z,98474.41
2018-12-31T00:13:58.108Z,98470.37
2018-12-31T00:16:27.980Z,98469.33
2018-12-31T00:18:59.299Z,98474.30
2018-12-31T00:21:29.082Z,98460.59
2018-12-31T00:23:58.708Z,98464.05
2018-12-31T00:26:28.414Z,98478.03
2018-12-31T00:28:57.998Z,98473.23
2018-12-31T00:31:29.312Z,98481.44
2018-12-31T00:33:59.007Z,98483.58
2018-12-31T00:36:29.079Z,98484.39
2018-12-31T00:39:06.255Z,98484.08
2018-12-31T00:41:38.567Z,98486.23
2018-12-31T00:44:08.205Z,98488.43
2018-12-31T00:46:38.389Z,98485.87
2018-12-31T00:49:10.600Z,98498.66
2018-12-31T00:51:43.128Z,98500.78
2018-12-31T00:54:12.627Z,98499.28
2018-12-31T00:56:41.905Z,98493.55
2018-12-31T00:59:11.523Z,98499.52
2018-12-31T01:01:44.333Z,98499.06
2018-12-31T01:04:14.743Z,98502.97
2018-12-31T01:06:48.959Z,98502.98
2018-12-31T01:09:18.598Z,98496.40
2018-12-31T01:11:47.998Z,98500.81
2018-12-31T01:14:17.809Z,98499.50
2018-12-31T01:16:47.644Z,98496.83
2018-12-31T01:19:17.445Z,98491.58
2018-12-31T01:21:49.904Z,98499.04
2018-12-31T01:24:22.677Z,98496.83
2018-12-31T01:26:52.468Z,98499.16
2018-12-31T01:29:23.878Z,98493.03
2018-12-31T01:31:52.693Z,98493.41
2018-12-31T01:34:21.511Z,98498.33
2018-12-31T01:36:50.388Z,98496.02
2018-12-31T01:39:19.178Z,98489.89
2018-12-31T01:41:49.418Z,98495.88
2018-12-31T01:44:18.885Z,98495.86
2018-12-31T01:46:47.748Z,98495.88
2018-12-31T01:49:16.696Z,98493.92
2018-12-31T01:51:45.432Z,98486.73
2018-12-31T01:54:14.305Z,98486.34
2018-12-31T01:56:43.073Z,98490.66
2018-12-31T01:59:14.850Z,98491.73
2018-12-31T02:01:43.519Z,98488.70
2018-12-31T02:04:12.169Z,98489.47
2018-12-31T02:06:40.931Z,98499.50
2018-12-31T02:09:09.593Z,98496.11
2018-12-31T02:11:38.162Z,98491.31
2018-12-31T02:14:07.986Z,98499.97
2018-12-31T02:16:36.650Z,98500.45
2018-12-31T02:19:05.340Z,98496.80
2018-12-31T02:21:34.167Z,98486.62
2018-12-31T02:24:03.137Z,98488.26
2018-12-31T02:26:31.731Z,98490.91
2018-12-31T02:29:00.522Z,98489.19
2018-12-31T02:31:30.245Z,98492.34
2018-12-31T02:33:58.868Z,98492.30
2018-12-31T02:36:27.517Z,98496.28
2018-12-31T02:38:56.313Z,98496.69
2018-12-31T02:41:26.728Z,98502.37
2018-12-31T02:43:55.499Z,98507.14
2018-12-31T02:46:24.132Z,98508.93
2018-12-31T02:48:53.036Z,98508.01
2018-12-31T02:51:21.628Z,98508.91
2018-12-31T02:53:50.350Z,98496.98
2018-12-31T02:56:20.032Z,98496.09
2018-12-31T02:58:48.723Z,98500.02
2018-12-31T03:01:17.379Z,98496.09
2018-12-31T03:03:46.121Z,98493.53
2018-12-31T03:06:18.161Z,98489.03
2018-12-31T03:08:46.872Z,98497.83
2018-12-31T03:11:15.511Z,98487.43
2018-12-31T03:13:45.039Z,98489.61
2018-12-31T03:16:14.030Z,98492.78
2018-12-31T03:18:42.741Z,98498.13
2018-12-31T03:21:13.900Z,98482.95
2018-12-31T03:23:42.515Z,98483.58
2018-12-31T03:26:11.131Z,98483.27
2018-12-31T03:28:39.802Z,98479.80
2018-12-31T03:31:08.305Z,98475.39
2018-12-31T03:33:36.964Z,98476.03
2018-12-31T03:36:05.634Z,98473.88
2018-12-31T03:38:34.391Z,98470.37
2018-12-31T03:41:03.060Z,98472.53
2018-12-31T03:43:31.644Z,98476.45
2018-12-31T03:46:00.241Z,98473.30
2018-12-31T03:48:29.097Z,98465.48
2018-12-31T03:50:57.749Z,98473.41
2018-12-31T03:53:26.425Z,98484.35
2018-12-31T03:55:55.089Z,98473.01
2018-12-31T03:58:24.488Z,98471.98
2018-12-31T04:00:53.038Z,98473.31
2018-12-31T04:03:21.730Z,98481.95
2018-12-31T04:05:52.287Z,98483.25
2018-12-31T04:08:20.949Z,98487.92
2018-12-31T04:10:49.559Z,98496.70
2018-12-31T04:13:18.287Z,98490.13
2018-12-31T04:15:46.959Z,98499.22
2018-12-31T04:18:15.557Z,98496.53
2018-12-31T04:20:44.148Z,98497.75
2018-12-31T04:23:12.777Z,98487.66
2018-12-31T04:25:41.457Z,98502.95
2018-12-31T04:28:10.147Z,98505.98
2018-12-31T04:30:38.730Z,98494.90
2018-12-31T04:33:07.305Z,98502.39
2018-12-31T04:35:37.624Z,98504.12
2018-12-31T04:38:06.306Z,98501.09
2018-12-31T04:40:34.927Z,98493.23
2018-12-31T04:43:03.646Z,98505.61
2018-12-31T04:45:32.259Z,98512.53
2018-12-31T04:48:01.015Z,98506.52
2018-12-31T04:50:29.563Z,98513.42
2018-12-31T04:52:58.282Z,98507.30
2018-12-31T04:55:29.492Z,98514.77
2018-12-31T04:57:58.209Z,98525.89
2018-12-31T05:00:26.842Z,98535.61
2018-12-31T05:02:55.566Z,98537.63
2018-12-31T05:05:24.057Z,98527.02
2018-12-31T05:07:52.750Z,98519.09
2018-12-31T05:10:21.458Z,98523.08
2018-12-31T05:12:50.322Z,98539.30
2018-12-31T05:15:19.946Z,98523.72
2018-12-31T05:17:48.668Z,98547.62
2018-12-31T05:20:17.251Z,98549.20
2018-12-31T05:22:45.870Z,98552.70
2018-12-31T05:25:14.490Z,98558.41
2018-12-31T05:27:42.953Z,98556.12
2018-12-31T05:30:13.324Z,98565.84
2018-12-31T05:32:41.976Z,98575.43
2018-12-31T05:35:10.591Z,98566.27
2018-12-31T05:37:39.198Z,98575.08
2018-12-31T05:40:08.043Z,98576.95
2018-12-31T05:42:36.649Z,98587.88
2018-12-31T05:45:05.295Z,98587.81
2018-12-31T05:47:35.321Z,98583.50
2018-12-31T05:50:04.235Z,98587.22
2018-12-31T05:52:32.800Z,98581.58
2018-12-31T05:55:01.373Z,98584.55
2018-12-31T05:57:30.091Z,98594.56
2018-12-31T05:59:58.763Z,98595.41
2018-12-31T06:02:27.647Z,98600.02
2018-12-31T06:04:56.235Z,98596.50
2018-12-31T06:07:24.883Z,98606.45
2018-12-31T06:09:53.545Z,98615.18
2018-12-31T06:12:22.244Z,98618.68
2018-12-31T06:14:50.792Z,98626.22
2018-12-31T06:17:19.791Z,98628.39
2018-12-31T06:19:48.456Z,98629.75
2018-12-31T06:22:17.411Z,98635.79
2018-12-31T06:24:49.136Z,98634.51
2018-12-31T06:27:17.802Z,98638.10
2018-12-31T06:29:46.509Z,98644.64
2018-12-31T06:32:16.127Z,98635.50
2018-12-31T06:34:44.858Z,98633.64
2018-12-31T06:37:13.448Z,98635.29
2018-12-31T06:39:42.096Z,98645.89
2018-12-31T06:42:10.704Z,98654.42
2018-12-31T06:44:39.604Z,98659.48
2018-12-31T06:47:08.208Z,98661.75
2018-12-31T06:49:36.938Z,98670.89
2018-12-31T06:52:05.508Z,98677.34
2018-12-31T06:54:34.235Z,98681.30
2018-12-31T06:57:04.322Z,98681.38
2018-12-31T06:59:33.037Z,98677.59
2018-12-31T07:02:01.642Z,98682.41
2018-12-31T07:04:30.396Z,98674.47
2018-12-31T07:06:58.983Z,98672.63
2018-12-31T07:09:27.659Z,98680.48
2018-12-31T07:11:56.338Z,98675.25
2018-12-31T07:14:24.969Z,98676.03
2018-12-31T07:16:53.587Z,98677.70
2018-12-31T07:19:22.315Z,98670.20
2018-12-31T07:21:50.906Z,98680.73
2018-12-31T07:24:19.615Z,98679.36
2018-12-31T07:26:48.290Z,98692.08
2018-12-31T07:29:16.900Z,98686.42
2018-12-31T07:31:45.562Z,98683.30
2018-12-31T07:34:14.083Z,98682.34
2018-12-31T07:36:42.834Z,98685.45
2018-12-31T07:39:11.460Z,98693.83
2018-12-31T07:41:40.364Z,98692.45
2018-12-31T07:44:08.981Z,98691.94
2018-12-31T07:46:37.728Z,98693.72
2018-12-31T07:49:06.359Z,98691.45
2018-12-31T07:51:35.017Z,98693.97
2018-12-31T07:54:03.537Z,98695.23
2018-12-31T07:56:32.296Z,98699.92
2018-12-31T07:59:00.920Z,98693.30
2018-12-31T08:01:32.522Z,98697.13
2018-12-31T08:04:01.102Z,98705.81
2018-12-31T08:06:29.801Z,98690.91
2018-12-31T08:08:58.407Z,98689.04
2018-12-31T08:11:27.215Z,98695.98
2018-12-31T08:13:57.602Z,98687.16
2018-12-31T08:16:26.271Z,98692.66
2018-12-31T08:18:54.873Z,98693.07
2018-12-31T08:21:23.562Z,98693.80
2018-12-31T08:23:52.225Z,98700.61
2018-12-31T08:26:20.927Z,98690.39
2018-12-31T08:28:49.598Z,98696.28
2018-12-31T08:31:21.155Z,98703.02
2018-12-31T08:33:49.764Z,98706.78
2018-12-31T08:36:18.467Z,98710.42
2018-12-31T08:38:47.181Z,98708.84
2018-12-31T08:41:16.060Z,98712.49
2018-12-31T08:43:44.727Z,98719.67
2018-12-31T08:46:13.496Z,98725.11
2018-12-31T08:48:42.107Z,98724.39
2018-12-31T08:51:10.854Z,98730.94
2018-12-31T08:53:39.513Z,98722.34
2018-12-31T08:56:08.973Z,98726.00
2018-12-31T08:58:37.606Z,98722.27
2018-12-31T09:01:06.731Z,98721.80
2018-12-31T09:03:35.253Z,98725.59
2018-12-31T09:06:03.940Z,98724.56
2018-12-31T09:08:32.540Z,98725.12
2018-12-31T09:11:01.198Z,98731.66
2018-12-31T09:13:29.789Z,98734.38
2018-12-31T09:15:58.515Z,98723.55
2018-12-31T09:18:27.118Z,98727.19
2018-12-31T09:20:57.645Z,98722.99
2018-12-31T09:23:27.868Z,98724.66
2018-12-31T09:25:56.561Z,98717.31
2018-12-31T09:28:25.235Z,98720.36
2018-12-31T09:30:53.908Z,98723.55
2018-12-31T09:33:22.518Z,98718.63
2018-12-31T09:35:51.294Z,98723.73
2018-12-31T09:38:19.799Z,98719.06
2018-12-31T09:40:48.515Z,98718.66
2018-12-31T09:43:19.890Z,98721.28
2018-12-31T09:45:48.687Z,98721.93
2018-12-31T09:48:17.355Z,98717.98
2018-12-31T09:50:46.012Z,98707.92
2018-12-31T09:53:14.908Z,98708.53
2018-12-31T09:55:43.692Z,98716.02
2018-12-31T09:58:12.466Z,98718.42
2018-12-31T10:00:41.200Z,98717.09
2018-12-31T10:03:10.161Z,98700.55
2018-12-31T10:05:38.957Z,98708.73
2018-12-31T10:08:07.811Z,98698.29
2018-12-31T10:10:36.591Z,98700.17
2018-12-31T10:13:05.340Z,98689.17
2018-12-31T10:15:34.085Z,98684.85
2018-12-31T10:18:02.731Z,98679.03
2018-12-31T10:20:34.222Z,98685.18
2018-12-31T10:23:02.920Z,98675.75
2018-12-31T10:25:31.668Z,98679.02
2018-12-31T10:28:00.688Z,98685.08
2018-12-31T10:30:29.368Z,98675.45
2018-12-31T10:32:59.054Z,98662.58
2018-12-31T10:35:28.146Z,98669.73
2018-12-31T10:37:56.839Z,98671.83
2018-12-31T10:40:25.742Z,98669.53
2018-12-31T10:42:57.444Z,98665.42
2018-12-31T10:45:26.315Z,98669.83
2018-12-31T10:47:55.035Z,98649.84
2018-12-31T10:50:23.747Z,98649.91
2018-12-31T10:52:52.488Z,98640.92
2018-12-31T10:55:21.264Z,98642.70
2018-12-31T10:57:50.020Z,98642.77
2018-12-31T11:00:19.212Z,98643.17
2018-12-31T11:02:47.963Z,98640.44
2018-12-31T11:05:19.843Z,98642.08
2018-12-31T11:07:48.563Z,98639.14
2018-12-31T11:10:20.206Z,98640.59
2018-12-31T11:12:51.700Z,98629.66
2018-12-31T11:15:20.453Z,98630.80
2018-12-31T11:17:49.189Z,98630.63
2018-12-31T11:20:20.967Z,98625.54
2018-12-31T11:22:49.674Z,98625.00
2018-12-31T11:25:20.006Z,98620.97
2018-12-31T11:27:51.336Z,98621.45
2018-12-31T11:30:20.280Z,98623.41
2018-12-31T11:32:49.581Z,98618.32
2018-12-31T11:35:18.745Z,98613.52
2018-12-31T11:37:47.604Z,98615.77
2018-12-31T11:40:16.555Z,98614.20
2018-12-31T11:42:46.697Z,98614.80
2018-12-31T11:45:19.097Z,98611.05
2018-12-31T11:47:48.401Z,98598.89
2018-12-31T11:50:19.692Z,98598.68
2018-12-31T11:52:49.327Z,98592.97
2018-12-31T11:55:18.233Z,98584.63
2018-12-31T11:57:47.161Z,98583.47
2018-12-31T12:00:16.561Z,98585.94
2018-12-31T12:02:45.971Z,98589.82
2018-12-31T12:05:17.807Z,98591.05
2018-12-31T12:07:46.810Z,98589.88
2018-12-31T12:10:15.851Z,98582.22
2018-12-31T12:12:45.615Z,98589.75
2018-12-31T12:15:15.606Z,98581.06
2018-12-31T12:17:47.688Z,98578.91
2018-12-31T12:20:17.310Z,98584.45
2018-12-31T12:22:48.107Z,98583.98
2018-12-31T12:25:17.167Z,98581.63
2018-12-31T12:27:46.033Z,98579.42
2018-12-31T12:30:19.737Z,98581.77
2018-12-31T12:32:50.691Z,98589.03
2018-12-31T12:35:21.659Z,98594.27
2018-12-31T12:37:57.783Z,98590.30
2018-12-31T12:40:28.306Z,98591.00
2018-12-31T12:42:59.692Z,98589.22
2018-12-31T12:45:33.830Z,98593.20
2018-12-31T12:48:06.314Z,98596.87
2018-12-31T12:50:37.623Z,98592.59
2018-12-31T12:53:08.904Z,98601.58
2018-12-31T12:55:38.527Z,98596.00
2018-12-31T12:58:07.747Z,98594.56
2018-12-31T13:00:39.784Z,98597.67
2018-12-31T13:03:10.909Z,98589.97
2018-12-31T13:05:43.369Z,98602.12
2018-12-31T13:08:14.783Z,98592.59
2018-12-31T13:10:45.288Z,98599.93
2018-12-31T13:13:16.479Z,98594.28
2018-12-31T13:15:45.512Z,98602.50
2018-12-31T13:18:14.901Z,98600.16
2018-12-31T13:20:44.234Z,98590.25
2018-12-31T13:23:13.171Z,98590.67
2018-12-31T13:25:44.704Z,98591.47
2018-12-31T13:28:17.135Z,98598.30
2018-12-31T13:30:48.336Z,98598.19
2018-12-31T13:33:23.149Z,98600.53
2018-12-31T13:35:56.349Z,98608.00
2018-12-31T13:38:27.553Z,98609.59
2018-12-31T13:40:59.344Z,98611.56
2018-12-31T13:43:31.475Z,98611.05
2018-12-31T13:46:03.533Z,98619.66
2018-12-31T13:48:35.603Z,98622.31
2018-12-31T13:51:05.085Z,98624.87
2018-12-31T13:53:35.187Z,98628.73
2018-12-31T13:56:05.754Z,98638.17
2018-12-31T13:58:36.833Z,98640.62
2018-12-31T14:01:06.373Z,98648.90
2018-12-31T14:03:36.010Z,98648.13
2018-12-31T14:06:08.879Z,98650.47
2018-12-31T14:08:38.332Z,98654.11
2018-12-31T14:11:09.243Z,98652.09
2018-12-31T14:13:44.006Z,98658.60
2018-12-31T14:16:18.201Z,98664.21
2018-12-31T14:18:50.348Z,98666.98
2018-12-31T14:21:24.192Z,98667.72
2018-12-31T14:23:57.111Z,98666.24
2018-12-31T14:26:30.246Z,98667.67
2018-12-31T14:29:00.498Z,98679.45
2018-12-31T14:31:30.787Z,98686.97
2018-12-31T14:34:02.059Z,98684.45
2018-12-31T14:36:31.932Z,98693.16
2018-12-31T14:39:08.957Z,98693.51
2018-12-31T14:41:40.084Z,98693.50
2018-12-31T14:44:10.327Z,98690.57
2018-12-31T14:46:41.530Z,98690.90
2018-12-31T14:49:11.833Z,98700.42
2018-12-31T14:51:45.315Z,98698.52
2018-12-31T14:54:16.779Z,98697.80
2018-12-31T14:56:48.136Z,98706.98
2018-12-31T14:59:22.664Z,98712.59
2018-12-31T15:01:54.282Z,98717.00
2018-12-31T15:04:24.236Z,98716.09
2018-12-31T15:06:56.262Z,98715.14
2018-12-31T15:09:26.423Z,98720.39
2018-12-31T15:12:00.119Z,98725.42
2018-12-31T15:14:32.921Z,98724.38
2018-12-31T15:17:05.419Z,98725.77
2018-12-31T15:19:35.349Z,98725.97
2018-12-31T15:22:07.180Z,98728.53
2018-12-31T15:24:38.373Z,98733.51
2018-12-31T15:27:09.781Z,98736.63
2018-12-31T15:29:39.933Z,98734.89
2018-12-31T15:32:10.920Z,98737.17
2018-12-31T15:34:42.273Z,98737.20
2018-12-31T15:37:12.210Z,98736.81
2018-12-31T15:39:42.991Z,98748.28
2018-12-31T15:42:16.685Z,98747.77
2018-12-31T15:44:51.544Z,98755.17
2018-12-31T15:47:22.858Z,98751.40
2018-12-31T15:49:52.530Z,98757.52
2018-12-31T15:52:23.278Z,98754.59
2018-12-31T15:54:55.394Z,98760.06
2018-12-31T15:57:28.445Z,98756.42
2018-12-31T15:59:58.214Z,98769.23
2018-12-31T16:02:27.234Z,98767.48
2018-12-31T16:04:57.235Z,98767.01
2018-12-31T16:07:33.589Z,98771.89
2018-12-31T16:10:08.052Z,98768.50
2018-12-31T16:12:39.275Z,98781.78
2018-12-31T16:15:14.022Z,98782.28
2018-12-31T16:17:48.255Z,98783.14
2018-12-31T16:20:22.838Z,98777.27
2018-12-31T16:22:56.078Z,98788.71
2018-12-31T16:25:28.587Z,98793.15
2018-12-31T16:28:00.863Z,98794.08
2018-12-31T16:30:32.526Z,98805.61
2018-12-31T16:33:05.982Z,98802.19
2018-12-31T16:35:39.540Z,98805.97
2018-12-31T16:38:12.037Z,98803.77
2018-12-31T16:40:44.074Z,98805.16
2018-12-31T16:43:18.442Z,98806.02
2018-12-31T16:45:51.128Z,98815.73
2018-12-31T16:48:24.133Z,98807.11
2018-12-31T16:50:58.674Z,98815.73
2018-12-31T16:53:32.896Z,98808.67
2018-12-31T16:56:06.928Z,98817.94
2018-12-31T16:58:38.396Z,98819.16
2018-12-31T17:01:13.729Z,98814.89
2018-12-31T17:03:46.484Z,98817.98
2018-12-31T17:06:22.676Z,98816.62
2018-12-31T17:08:56.348Z,98813.69
2018-12-31T17:11:25.858Z,98818.07
2018-12-31T17:13:55.085Z,98815.48
2018-12-31T17:16:26.871Z,98817.76
2018-12-31T17:18:56.492Z,98819.05
2018-12-31T17:21:26.893Z,98819.52
2018-12-31T17:23:57.498Z,98826.09
2018-12-31T17:26:27.022Z,98825.23
2018-12-31T17:28:56.645Z,98823.13
2018-12-31T17:31:25.852Z,98832.31
2018-12-31T17:33:57.471Z,98827.17
2018-12-31T17:36:27.187Z,98835.16
2018-12-31T17:38:57.719Z,98841.23
2018-12-31T17:41:27.903Z,98835.61
2018-12-31T17:43:57.882Z,98842.17
2018-12-31T17:46:29.359Z,98843.09
2018-12-31T17:48:59.776Z,98844.89
2018-12-31T17:51:29.505Z,98839.97
2018-12-31T17:53:58.605Z,98839.97
2018-12-31T17:56:30.470Z,98844.27
2018-12-31T17:58:59.485Z,98840.24
2018-12-31T18:01:28.694Z,98839.91
2018-12-31T18:03:57.560Z,98840.81
2018-12-31T18:06:27.082Z,98839.39
2018-12-31T18:08:56.192Z,98846.44
2018-12-31T18:11:27.887Z,98845.95
2018-12-31T18:14:03.069Z,98851.16
2018-12-31T18:16:36.422Z,98853.81
2018-12-31T18:19:11.392Z,98855.06
2018-12-31T18:21:44.812Z,98854.63
2018-12-31T18:24:16.828Z,98862.52
2018-12-31T18:26:50.493Z,98859.38
2018-12-31T18:29:24.377Z,98874.67
2018-12-31T18:31:56.981Z,98874.55
2018-12-31T18:34:26.623Z,98877.39
2018-12-31T18:36:57.926Z,98885.44
2018-12-31T18:39:27.174Z,98884.55
2018-12-31T18:42:02.199Z,98891.13
2018-12-31T18:44:35.447Z,98889.30
2018-12-31T18:47:06.065Z,98891.45
2018-12-31T18:49:37.171Z,98891.88
2018-12-31T18:52:10.989Z,98900.19
2018-12-31T18:54:40.827Z,98899.30
2018-12-31T18:57:13.333Z,98900.55
2018-12-31T18:59:43.399Z,98903.52
2018-12-31T19:02:15.131Z,98904.88
2018-12-31T19:04:45.145Z,98905.33
2018-12-31T19:07:14.982Z,98902.20
2018-12-31T19:09:45.847Z,98904.45
2018-12-31T19:12:15.493Z,98910.28
2018-12-31T19:14:46.873Z,98904.61
2018-12-31T19:17:21.829Z,98907.56
2018-12-31T19:19:50.650Z,98914.99
2018-12-31T19:22:19.583Z,98914.02
2018-12-31T19:24:48.544Z,98919.23
2018-12-31T19:27:17.887Z,98920.13
2018-12-31T19:29:47.540Z,98918.78
2018-12-31T19:32:16.394Z,98932.23
2018-12-31T19:34:45.238Z,98931.88
2018-12-31T19:37:16.809Z,98927.91
2018-12-31T19:39:45.588Z,98930.09
2018-12-31T19:42:16.289Z,98927.91
2018-12-31T19:44:45.042Z,98927.40
2018-12-31T19:47:13.714Z,98927.43
2018-12-31T19:49:42.802Z,98938.80
2018-12-31T19:52:12.283Z,98931.38
2018-12-31T19:54:41.145Z,98933.58
2018-12-31T19:57:10.304Z,98930.50
2018-12-31T19:59:39.465Z,98934.83
2018-12-31T20:02:08.191Z,98935.30
2018-12-31T20:04:37.292Z,98936.17
2018-12-31T20:07:05.983Z,98939.22
2018-12-31T20:09:34.758Z,98946.14
2018-12-31T20:12:03.820Z,98930.40
2018-12-31T20:14:32.642Z,98943.06
2018-12-31T20:17:01.767Z,98944.78
2018-12-31T20:19:30.796Z,98938.67
2018-12-31T20:22:00.092Z,98941.29
2018-12-31T20:24:29.481Z,98946.05
2018-12-31T20:26:58.597Z,98941.67
2018-12-31T20:29:27.611Z,98951.29
2018-12-31T20:31:59.947Z,98948.73
2018-12-31T20:34:32.009Z,98953.08
2018-12-31T20:37:11.393Z,98956.97
2018-12-31T20:39:53.273Z,98959.59
2018-12-31T20:42:28.798Z,98963.19
2018-12-31T20:44:59.993Z,98964.95
2018-12-31T20:47:32.405Z,98961.41
2018-12-31T20:50:04.680Z,98955.75
2018-12-31T20:52:33.944Z,98955.32
2018-12-31T20:55:06.375Z,98955.75
2018-12-31T20:57:36.681Z,98959.56
2018-12-31T21:00:08.478Z,98956.05
2018-12-31T21:02:42.122Z,98959.98
2018-12-31T21:05:13.508Z,98959.98
2018-12-31T21:07:43.335Z,98964.25
2018-12-31T21:10:14.043Z,98963.30
2018-12-31T21:12:44.854Z,98970.36
2018-12-31T21:15:17.204Z,98960.30
2018-12-31T21:17:50.609Z,98967.69
2018-12-31T21:20:20.912Z,98971.62
2018-12-31T21:22:50.447Z,98973.01
2018-12-31T21:25:25.967Z,98972.16
2018-12-31T21:28:00.386Z,98981.35
2018-12-31T21:30:33.110Z,98978.27
2018-12-31T21:33:08.156Z,98975.20
2018-12-31T21:35:44.058Z,98982.66
2018-12-31T21:38:19.068Z,98978.37
2018-12-31T21:40:51.940Z,98980.16
2018-12-31T21:43:26.995Z,98976.22
2018-12-31T21:46:02.922Z,98984.58
2018-12-31T21:48:39.370Z,98982.41
2018-12-31T21:51:15.154Z,98980.23
2018-12-31T21:53:49.174Z,98984.60
2018-12-31T21:56:22.721Z,98990.64
2018-12-31T21:58:58.699Z,98988.61
2018-12-31T22:01:34.288Z,98993.46
2018-12-31T22:04:11.315Z,98995.64
2018-12-31T22:06:47.755Z,98992.59
2018-12-31T22:09:23.490Z,98992.58
2018-12-31T22:11:56.606Z,98994.39
2018-12-31T22:14:30.877Z,98995.63
2018-12-31T22:17:05.259Z,98996.61
2018-12-31T22:19:41.040Z,98997.48
2018-12-31T22:22:13.461Z,98991.82
2018-12-31T22:24:49.217Z,98994.00
2018-12-31T22:27:23.113Z,98996.59
2018-12-31T22:29:57.449Z,99004.05
2018-12-31T22:32:30.480Z,99008.49
2018-12-31T22:35:03.852Z,99002.37
2018-12-31T22:37:33.980Z,99009.39
2018-12-31T22:40:07.699Z,98999.76
2018-12-31T22:42:39.719Z,99005.43
2018-12-31T22:45:10.386Z,99004.55
2018-12-31T22:47:42.707Z,99009.30
2018-12-31T22:50:13.229Z,98997.14
2018-12-31T22:52:45.321Z,99007.20
2018-12-31T22:55:19.340Z,98996.70
2018-12-31T22:57:50.929Z,98998.89
2018-12-31T23:00:29.009Z,99005.09
2018-12-31T23:03:03.476Z,99002.92
2018-12-31T23:05:40.097Z,99002.98
2018-12-31T23:08:15.199Z,98998.11
2018-12-31T23:10:46.962Z,99014.67
2018-12-31T23:13:18.068Z,99004.64
2018-12-31T23:15:51.767Z,99006.84
2018-12-31T23:18:23.940Z,99012.59
2018-12-31T23:20:55.354Z,99011.73
2018-12-31T23:23:28.071Z,99008.67
2018-12-31T23:26:03.218Z,99014.80
2018-12-31T23:28:36.713Z,99016.98
2018-12-31T23:31:08.880Z,99022.67
2018-12-31T23:33:39.979Z,99018.73
2018-12-31T23:36:12.634Z,99012.23
2018-12-31T23:38:46.933Z,99016.61
2018-12-31T23:41:18.443Z,99014.42
2018-12-31T23:43:51.531Z,99007.81
2018-12-31T23:46:21.529Z,99012.61
2018-12-31T23:48:57.248Z,99009.98
2018-12-31T23:51:28.831Z,99012.23
2018-12-31T23:53:59.328Z,99008.31
2018-12-31T23:56:28.168Z,99003.06
2018-12-31T23:58:56.725Z,99006.52
